Latest Weather Observations for Bellambi

IDN60901

Issued at 6:31 pm EST Wednesday 28 September 2016 (issued every 10 minutes, with the page automatically refreshed every 10 minutes)

About weather observations | Map of Sydney area stations | Latest observations for Sydney area | Other Formats
Station Details ID: 068228 Name: BELLAMBI AWS Lat: -34.37 Lon: 150.93 Height: 10.0 m
Data from the previous 72 hours. | See also: Recent months at Bellambi
Date/Time
EST
Temp
°C
App
Temp
°C
Dew
Point
°C
Rel
Hum
%
Delta-T
°C
Wind Press
QNH
hPa
Press
MSL
hPa
Rain since
9am
mm
Dir  Spd
km/h
Gust
km/h
Spd
kts
Gust
kts
28/06:30pm 16.8 12.6 7.4 54 4.7 NE 19 24 10 13 - - 0.0
28/06:00pm 16.7 12.5 7.4 54 4.6 NE 19 24 10 13 - - 0.0
28/05:30pm 16.8 13.2 8.2 57 4.4 NE 17 22 9 12 - - 0.0
28/05:00pm 17.0 13.4 8.4 57 4.4 ENE 17 22 9 12 - - 0.0
28/04:30pm 17.4 14.2 8.5 56 4.6 ENE 15 19 8 10 - - 0.0
28/04:00pm 17.7 14.9 8.6 55 4.7 E 13 17 7 9 - - 0.0
28/03:30pm 17.8 15.0 8.4 54 4.8 ENE 13 19 7 10 - - 0.0
28/03:00pm 18.0 15.3 9.1 56 4.6 ENE 13 17 7 9 - - 0.0
28/02:30pm 18.0 15.4 9.4 57 4.5 E 13 19 7 10 - - 0.0
28/02:00pm 17.8 15.2 9.2 57 4.5 E 13 19 7 10 - - 0.0
28/01:30pm 17.8 15.2 9.2 57 4.5 ESE 13 17 7 9 - - 0.0
28/01:00pm 17.7 14.8 8.3 54 4.8 ESE 13 17 7 9 - - 0.0
28/12:30pm 17.6 14.9 9.0 57 4.5 SE 13 17 7 9 - - 0.0
28/12:00pm 17.3 14.4 8.2 55 4.6 SE 13 17 7 9 - - 0.0
28/11:30am 17.6 14.8 7.1 50 5.2 SSE 11 17 6 9 - - 0.0
28/11:00am 17.3 13.8 7.1 51 5.1 S 15 19 8 10 - - 0.0
28/10:30am 17.2 13.4 5.8 47 5.5 S 15 19 8 10 - - 0.0
28/10:00am 16.9 12.1 4.9 45 5.7 S 19 22 10 12 - - 0.0
28/09:30am 16.7 11.9 4.4 44 5.8 S 19 22 10 12 - - 0.0
28/09:00am 16.4 11.7 5.1 47 5.4 SSW 19 22 10 12 - - 0.0
28/08:30am 16.3 11.9 5.0 47 5.4 SSW 17 24 9 13 - - 0.0
28/08:00am 15.9 12.6 4.3 46 5.4 SSW 11 17 6 9 - - 0.0
28/07:30am 14.9 12.0 4.9 51 4.7 WSW 9 11 5 6 - - 0.0
28/07:00am 13.3 11.8 5.0 57 3.8 NNW 2 6 1 3 - - 0.0
28/06:30am 12.0 8.9 3.8 57 3.7 WSW 9 9 5 5 - - 0.0
28/06:00am 11.3 8.1 3.1 57 3.6 W 9 11 5 6 - - 0.0
28/05:30am 10.8 8.3 3.8 62 3.1 W 6 9 3 5 - - 0.0
28/05:00am 10.9 7.9 3.9 62 3.1 W 9 13 5 7 - - 0.0
28/04:30am 11.3 7.4 3.3 58 3.5 WSW 13 19 7 10 - - 0.0
28/04:00am 11.8 7.1 3.1 55 3.8 W 17 22 9 12 - - 0.0
28/03:30am 11.6 7.3 3.4 57 3.6 WSW 15 20 8 11 - - 0.0
28/03:00am 11.6 6.9 3.4 57 3.6 W 17 24 9 13 - - 0.0
28/02:30am 11.4 7.1 3.4 58 3.5 W 15 20 8 11 - - 0.0
28/02:00am 11.8 7.8 3.1 55 3.8 W 13 19 7 10 - - 0.0
28/01:30am 12.3 7.6 3.0 53 4.1 WSW 17 24 9 13 - - 0.0
28/01:00am 12.5 7.8 2.9 52 4.2 WSW 17 26 9 14 - - 0.0
28/12:30am 12.5 7.8 2.9 52 4.2 WSW 17 26 9 14 - - 0.0
28/12:00am 13.0 8.6 2.8 50 4.5 WSW 15 24 8 13 - - 0.0
 
Date/Time
EST
Temp
°C
App
Temp
°C
Dew
Point
°C
Rel
Hum
%
Delta-T
°C
Wind Press
QNH
hPa
Press
MSL
hPa
Rain since
9am
mm
Dir  Spd
km/h
Gust
km/h
Spd
kts
Gust
kts
27/11:30pm 13.4 7.7 2.9 49 4.7 WSW 22 35 12 19 - - 0.0
27/11:00pm 12.9 7.8 3.0 51 4.4 WSW 19 28 10 15 - - 0.0
27/10:30pm 12.4 8.4 2.8 52 4.2 WSW 13 22 7 12 - - 0.0
27/10:00pm 12.1 8.1 2.6 52 4.1 SW 13 19 7 10 - - 0.0
27/09:30pm 12.1 8.5 2.8 53 4.1 W 11 17 6 9 - - 0.0
27/09:00pm 12.6 8.5 2.5 50 4.4 WSW 13 17 7 9 - - 0.0
27/08:30pm 13.0 9.3 2.3 48 4.7 WSW 11 17 6 9 - - 0.0
27/08:00pm 13.5 9.3 1.8 45 5.1 SW 13 17 7 9 - - 0.0
27/07:30pm 13.9 9.3 1.5 43 5.4 SW 15 20 8 11 - - 0.0
27/07:00pm 14.5 10.3 1.4 41 5.7 WSW 13 22 7 12 - - 0.0
27/06:30pm 15.0 11.1 1.2 39 6.0 WSW 11 17 6 9 - - 0.0
27/06:00pm 15.2 10.4 2.4 42 5.7 SW 17 24 9 13 - - 0.0
27/05:30pm 15.6 11.2 9.1 65 3.3 SSW 22 30 12 16 - - 0.0
27/05:00pm 16.3 11.0 7.0 54 4.6 SW 24 35 13 19 - - 0.0
27/04:30pm 17.8 10.8 -0.5 29 7.8 WSW 26 39 14 21 - - 0.0
27/04:00pm 18.2 9.8 -1.1 27 8.2 W 33 57 18 31 - - 0.0
27/03:31pm 18.7 11.4 0.3 29 8.1 W 28 48 15 26 - - 0.0
27/03:30pm 18.7 11.7 -0.2 28 8.2 W 26 48 14 26 - - 0.0
27/03:00pm 18.9 11.1 -0.5 27 8.4 WSW 30 52 16 28 - - 0.0
27/02:30pm 18.9 9.3 -1.5 25 8.7 WSW 39 63 21 34 - - 0.0
27/02:16pm 19.3 11.5 -0.7 26 8.7 W 30 56 16 30 - - 0.0
27/02:15pm 19.3 11.4 -1.2 25 8.8 W 30 56 16 30 - - 0.0
27/02:05pm 19.5 12.1 -1.0 25 8.8 W 28 46 15 25 - - 0.0
27/02:00pm 19.9 13.0 0.4 27 8.7 W 26 46 14 25 - - 0.0
27/01:30pm 19.6 11.2 -0.9 25 8.9 W 33 52 18 28 - - 0.0
27/01:00pm 19.9 12.3 0.4 27 8.7 W 30 52 16 28 - - 0.0
27/12:37pm 20.2 12.8 -0.4 25 9.0 WSW 28 48 15 26 - - 0.0
27/12:30pm 20.2 13.4 1.1 28 8.6 WSW 26 43 14 23 - - 0.0
27/12:00pm 20.4 13.9 4.8 36 7.6 WSW 28 46 15 25 - - 0.0
27/11:30am 19.9 14.4 4.0 35 7.6 WSW 22 39 12 21 - - 0.0
27/11:00am 20.0 15.4 6.4 41 6.8 WSW 20 32 11 17 - - 0.0
27/10:30am 18.8 17.2 7.9 49 5.6 NNW 6 9 3 5 - - 0.0
27/10:00am 17.1 12.8 7.2 52 4.9 NNE 19 26 10 14 - - 0.0
27/09:30am 17.3 13.0 7.9 54 4.8 NNE 20 26 11 14 - - 0.0
27/09:00am 16.4 11.2 7.1 54 4.6 N 24 30 13 16 - - 0.0
27/08:30am 15.6 11.0 6.3 54 4.5 NNW 20 30 11 16 - - 0.0
27/08:00am 13.0 9.0 4.9 58 3.7 NW 15 19 8 10 - - 0.0
27/07:30am 13.4 10.5 4.8 56 4.0 NNW 9 17 5 9 - - 0.0
27/07:00am 12.5 10.1 4.2 57 3.8 NW 6 9 3 5 - - 0.0
27/06:30am 13.4 9.0 4.8 56 4.0 N 17 22 9 12 - - 0.0
27/06:00am 13.4 8.9 4.0 53 4.3 N 17 22 9 12 - - 0.0
27/05:30am 12.3 9.6 5.5 63 3.2 NNW 9 11 5 6 - - 0.0
27/05:00am 11.7 8.7 4.2 60 3.4 SSE 9 17 5 9 - - 0.0
27/04:30am 11.7 7.2 4.4 61 3.3 NNW 17 20 9 11 - - 0.0
27/04:00am 11.7 7.5 3.7 58 3.6 W 15 20 8 11 - - 0.0
27/03:30am 11.7 8.1 3.2 56 3.7 W 11 17 6 9 - - 0.0
27/03:00am 12.4 9.3 3.6 55 3.9 SSW 9 15 5 8 - - 0.0
27/02:30am 12.6 10.4 3.6 54 4.0 S 4 11 2 6 - - 0.0
27/02:00am 12.3 10.0 3.0 53 4.1 SSW 4 9 2 5 - - 0.0
27/01:30am 13.0 8.6 2.8 50 4.5 WNW 15 24 8 13 - - 0.0
27/01:00am 13.1 8.0 2.9 50 4.5 W 19 28 10 15 - - 0.0
27/12:30am 13.2 8.5 3.0 50 4.5 W 17 26 9 14 - - 0.0
27/12:00am 13.8 9.3 2.4 46 5.0 WSW 15 30 8 16 - - 0.0
 
Date/Time
EST
Temp
°C
App
Temp
°C
Dew
Point
°C
Rel
Hum
%
Delta-T
°C
Wind Press
QNH
hPa
Press
MSL
hPa
Rain since
9am
mm
Dir  Spd
km/h
Gust
km/h
Spd
kts
Gust
kts
26/11:30pm 13.4 8.9 2.3 47 4.9 W 15 24 8 13 - - 0.0
26/11:00pm 13.5 8.7 2.4 47 4.9 W 17 24 9 13 - - 0.0
26/10:30pm 13.6 8.3 3.1 49 4.7 W 20 30 11 16 - - 0.0
26/10:00pm 13.7 9.0 2.9 48 4.8 WSW 17 28 9 15 - - 0.0
26/09:30pm 14.2 8.9 2.8 46 5.1 W 20 33 11 18 - - 0.0
26/09:00pm 14.5 9.3 2.4 44 5.4 W 19 32 10 17 - - 0.0
26/08:30pm 14.0 10.7 2.6 46 5.0 SW 9 20 5 11 - - 0.0
26/08:00pm 14.4 10.7 2.3 44 5.3 WSW 11 19 6 10 - - 0.0
26/07:30pm 15.2 10.4 2.4 42 5.7 WSW 17 24 9 13 - - 0.0
26/07:00pm 15.6 10.1 2.1 40 6.0 WNW 20 30 11 16 - - 0.0
26/06:30pm 15.6 10.8 2.4 41 5.9 WSW 17 32 9 17 - - 0.0
26/06:00pm 15.3 14.6 7.1 58 4.0 CALM 0 0 0 0 - - 0.0
26/05:30pm 16.4 15.5 7.9 57 4.3 S 2 7 1 4 - - 0.0
26/05:00pm 16.0 14.1 7.7 58 4.2 S 7 9 4 5 - - 0.0
26/04:30pm 16.0 13.7 7.5 57 4.2 S 9 11 5 6 - - 0.0
26/04:00pm 16.1 13.8 7.6 57 4.2 S 9 13 5 7 - - 0.0
26/03:30pm 16.7 14.0 7.4 54 4.6 SE 11 13 6 7 - - 0.0
26/03:00pm 16.9 14.6 7.5 54 4.7 ESE 9 13 5 7 - - 0.0
26/02:30pm 16.9 14.1 8.6 58 4.3 ESE 13 17 7 9 - - 0.0
26/02:00pm 17.1 14.4 8.8 58 4.3 ESE 13 19 7 10 - - 0.0
26/01:30pm 17.0 13.9 7.4 53 4.8 ESE 13 17 7 9 - - 0.0
26/01:00pm 17.0 13.7 8.2 56 4.5 SE 15 19 8 10 - - 0.0
26/12:30pm 17.0 13.0 6.8 51 5.0 SE 17 20 9 11 - - 0.0
26/12:00pm 16.8 12.3 6.0 49 5.3 SE 19 22 10 12 - - 0.0
26/11:30am 16.9 11.9 6.4 50 5.2 SSE 22 28 12 15 - - 0.0
26/11:00am 17.2 12.3 4.9 44 5.9 SSE 20 24 11 13 - - 0.0
26/10:30am 16.7 12.7 5.0 46 5.6 S 15 19 8 10 - - 0.0
26/10:00am 16.4 11.4 3.8 43 5.8 SSW 19 20 10 11 - - 0.0
26/09:30am 15.8 11.0 5.4 50 5.0 SSW 20 26 11 14 - - 0.0
26/09:00am 15.5 10.9 5.7 52 4.7 SW 19 24 10 13 - - 2.6
26/08:30am 14.7 9.7 4.4 50 4.8 WSW 20 30 11 16 - - 2.6
26/08:00am 13.8 9.3 4.4 53 4.3 WSW 17 24 9 13 - - 2.6
26/07:30am 12.7 8.0 5.1 60 3.5 W 19 26 10 14 - - 2.6
26/07:00am 11.8 6.5 5.0 63 3.1 W 22 32 12 17 - - 2.6
26/06:30am 11.3 7.8 5.4 67 2.7 W 13 20 7 11 - - 2.6
26/06:00am 10.8 7.2 5.1 68 2.6 W 13 19 7 10 - - 2.6
26/05:30am 10.6 6.8 5.8 72 2.2 WSW 15 24 8 13 - - 2.6
26/05:00am 10.8 6.7 6.2 73 2.1 W 17 24 9 13 - - 2.6
26/04:30am 11.2 7.5 6.3 72 2.3 W 15 20 8 11 - - 2.6
26/04:00am 11.0 7.9 7.3 78 1.8 W 13 19 7 10 - - 2.6
26/03:30am 11.5 9.8 9.8 89 0.9 W 9 13 5 7 - - 2.4
26/03:00am 11.8 9.8 10.2 90 0.8 WSW 11 13 6 7 - - 2.4
26/02:30am 11.9 10.3 10.3 90 0.8 WSW 9 15 5 8 - - 2.4
26/02:00am 12.2 9.6 10.6 90 0.8 SW 15 19 8 10 - - 2.4
26/01:30am 12.7 10.2 10.9 89 0.9 WSW 15 22 8 12 - - 2.4
26/01:00am 13.0 10.5 11.1 88 1.0 SW 15 17 8 9 - - 2.4
26/12:30am 13.1 11.1 11.5 90 0.8 WSW 13 19 7 10 - - 2.4
26/12:00am 13.0 11.0 11.6 91 0.7 SW 13 17 7 9 - - 2.4
 
Date/Time
EST
Temp
°C
App
Temp
°C
Dew
Point
°C
Rel
Hum
%
Delta-T
°C
Wind Press
QNH
hPa
Press
MSL
hPa
Rain since
9am
mm
Dir  Spd
km/h
Gust
km/h
Spd
kts
Gust
kts
25/11:30pm 13.1 11.2 11.8 92 0.7 SW 13 19 7 10 - - 2.4
25/11:00pm 13.3 10.6 11.7 90 0.9 SW 17 22 9 12 - - 1.4
25/10:30pm 14.1 10.7 11.4 84 1.4 SW 20 26 11 14 - - 0.0
25/10:00pm 14.4 11.7 11.6 83 1.5 SW 17 24 9 13 - - 0.0
25/09:30pm 14.5 11.7 11.5 82 1.6 SW 17 20 9 11 - - 0.0
25/09:00pm 14.6 11.8 11.2 80 1.8 SW 17 20 9 11 - - 0.0
25/08:30pm 14.7 12.2 10.9 78 2.0 SW 15 20 8 11 - - 0.0
25/08:00pm 14.6 12.5 11.2 80 1.8 SW 13 17 7 9 - - 0.0
25/07:30pm 14.4 11.9 11.0 80 1.8 SW 15 19 8 10 - - 0.0
25/07:00pm 14.3 12.5 10.7 79 1.9 SW 11 15 6 8 - - 0.0

Latest Capital City Observations: Canberra | Sydney | Melbourne | Brisbane | Adelaide | Perth | Hobart | Darwin

Other Formats:

Comma delimited format used in spreadsheet applications
http://www.bom.gov.au/fwo/IDN60901/IDN60901.94749.axf

JavaScript Object Notation format (JSON) in row-major order
http://www.bom.gov.au/fwo/IDN60901/IDN60901.94749.json